マンチェスター の空港の天気 - METARとTAF

マンチェスター空港 ( EGCC / MAN ) - イギリス マンチェスター
飛行場実況気象(Metar)
観測時間07/16 17:50 BST (07/16 16:50 UTC)
風向・風速西北西 3m/s
視程10km以上
天気現象
全天を覆う雲 雲底高度 370m
気温17℃
湿度88%
気圧1021hPa
METAREGCC 161650Z AUTO 30005KT 9999 OVC012 17/15 Q1021 NOSIG
過去の天気等 Google飛行場航空写真 Wunderground天気予報

過去48時間のMETAR

飛行場予報(TAF)
発表時間: 7/16 11:56 BST (7/16 10:56 UTC)
予報対象時間: 16日13時 BST ~ 17日19時 BST
風向・風速西北西 5m/s
視程10km以上
全天の8割程度の雲 雲底高度 610m
16日13時 BST ~ 16日21時 BST に一時的に
全天の8割程度の雲 雲底高度 370m
16日20時 BST ~ 16日22時 BST に徐々に
風向・風速南 3m/s
17日3時 BST ~ 17日9時 BST に一時的に
視程6000m
17日4時 BST ~ 17日7時 BST に 確率 30% で一時的に
視程3000m
天気現象もや
17日17時 BST から 確率 30% で
全天の8割程度の雲 雲底高度 370m
TAF EGCC 161056Z 1612/1718 29010KT 9999 BKN020
TEMPO 1612/1620 BKN012
BECMG 1619/1621 19006KT
TEMPO 1702/1708 6000
PROB30 TEMPO 1703/1706 3000 BR
PROB30 1716/1718 BKN012